ウラジオストク の空港の天気 - METARとTAF

ウラジオストク空港 ( UHWW / VVO ) - ロシア ウラジオストク
飛行場実況気象(Metar)
観測時間03/29 07:00 +10 (03/28 21:00 UTC)
風向・風速東南東 3m/s
視程9000m
天気現象
全天の4割程度の雲 雲底高度 1220m
気温0℃
湿度80%
気圧1015hPa
METARUHWW 282100Z 11003MPS 9000 SCT040CB 00/M03 Q1015 R25L/19//65 NOSIG RMK QFE760
過去の天気等 Google飛行場航空写真 Wunderground天気予報

過去48時間のMETAR

飛行場予報(TAF)
発表時間: 3/29 05:55 +10 (3/28 19:55 UTC)
予報対象時間: 29日7時 +10 ~ 30日7時 +10
風向・風速東南東 3m/s
視程5,000m
天気現象
全天の8割程度の積乱雲 雲底高度 610m
29日7時 +10 ~ 30日7時 +10 に一時的に
風向・風速南西 3m/s
視程3,000m
天気現象弱いしゅう雨 もや
全天の4割程度の雲 雲底高度 240m
全天の8割程度の積乱雲 雲底高度 520m
TAF UHWW 281955Z 2821/2921 12003MPS 5000 FU BKN020CB
TEMPO 2821/2921 22003MPS 3000 -SHRA BR SCT008 BKN017CB